Terminal Aerodrome Forecast
Issued by NWS Birmingham, AL

Home | Current Version | Previous Version | Text Only | Print | Product List | Glossary On
Versions: 1 2 3 4 5 6 7 8 9 10 11 12 13 14 15 16
649
FTUS44 KBMX 231727
TAFBHM
TAF
KBHM 231727Z 2318/2418 14010G15KT P6SM FEW050
     FM240000 12008KT P6SM BKN040
     FM241000 14009KT P6SM BKN025
     FM241400 14010KT P6SM BKN040=

USA.gov is the U.S. government's official web portal to all federal, state and local government web resources and services.